sensor_id;sensor_type;location;lat;lon;timestamp;P1;durP1;ratioP1;P2;durP2;ratioP2
40555;SDS011;26250;45.422;11.100;2022-12-18T00:01:18;6.60;;;5.32;;
40555;SDS011;26250;45.422;11.100;2022-12-18T00:03:47;10.77;;;5.72;;
40555;SDS011;26250;45.422;11.100;2022-12-18T00:06:15;25.33;;;5.75;;
40555;SDS011;26250;45.422;11.100;2022-12-18T00:08:43;9.80;;;5.20;;
40555;SDS011;26250;45.422;11.100;2022-12-18T00:11:12;12.95;;;5.72;;
40555;SDS011;26250;45.422;11.100;2022-12-18T00:13:43;9.65;;;5.20;;
40555;SDS011;26250;45.422;11.100;2022-12-18T00:16:12;5.20;;;4.75;;
40555;SDS011;26250;45.422;11.100;2022-12-18T00:18:40;8.90;;;4.85;;
40555;SDS011;26250;45.422;11.100;2022-12-18T00:21:08;6.55;;;5.20;;
40555;SDS011;26250;45.422;11.100;2022-12-18T00:23:37;8.45;;;7.53;;
40555;SDS011;26250;45.422;11.100;2022-12-18T00:26:13;13.65;;;9.07;;
40555;SDS011;26250;45.422;11.100;2022-12-18T00:28:44;35.92;;;9.48;;
40555;SDS011;26250;45.422;11.100;2022-12-18T00:31:13;8.98;;;8.07;;
40555;SDS011;26250;45.422;11.100;2022-12-18T00:33:42;12.98;;;7.15;;
40555;SDS011;26250;45.422;11.100;2022-12-18T00:36:10;10.50;;;6.97;;
40555;SDS011;26250;45.422;11.100;2022-12-18T00:38:39;8.20;;;6.55;;
40555;SDS011;26250;45.422;11.100;2022-12-18T00:41:09;45.35;;;9.85;;
40555;SDS011;26250;45.422;11.100;2022-12-18T00:43:37;14.23;;;7.53;;
40555;SDS011;26250;45.422;11.100;2022-12-18T00:46:05;10.25;;;6.70;;
40555;SDS011;26250;45.422;11.100;2022-12-18T00:48:32;10.25;;;7.20;;
40555;SDS011;26250;45.422;11.100;2022-12-18T00:50:59;8.13;;;7.22;;
40555;SDS011;26250;45.422;11.100;2022-12-18T00:53:26;7.65;;;6.95;;
40555;SDS011;26250;45.422;11.100;2022-12-18T00:55:54;7.35;;;6.05;;
40555;SDS011;26250;45.422;11.100;2022-12-18T00:58:21;8.40;;;5.65;;
40555;SDS011;26250;45.422;11.100;2022-12-18T01:00:48;6.47;;;5.82;;
40555;SDS011;26250;45.422;11.100;2022-12-18T01:03:16;17.05;;;5.80;;
40555;SDS011;26250;45.422;11.100;2022-12-18T01:05:43;14.32;;;6.97;;
40555;SDS011;26250;45.422;11.100;2022-12-18T01:08:10;11.55;;;5.82;;
40555;SDS011;26250;45.422;11.100;2022-12-18T01:10:40;7.28;;;6.43;;
40555;SDS011;26250;45.422;11.100;2022-12-18T01:13:07;5.32;;;4.93;;
40555;SDS011;26250;45.422;11.100;2022-12-18T01:15:35;13.32;;;5.68;;
40555;SDS011;26250;45.422;11.100;2022-12-18T01:18:02;27.02;;;6.13;;
40555;SDS011;26250;45.422;11.100;2022-12-18T01:20:32;6.07;;;5.47;;
40555;SDS011;26250;45.422;11.100;2022-12-18T01:22:59;7.85;;;5.32;;
40555;SDS011;26250;45.422;11.100;2022-12-18T01:25:25;6.00;;;4.65;;
40555;SDS011;26250;45.422;11.100;2022-12-18T01:27:52;4.88;;;4.47;;
40555;SDS011;26250;45.422;11.100;2022-12-18T01:30:19;18.45;;;4.93;;
40555;SDS011;26250;45.422;11.100;2022-12-18T01:32:46;5.18;;;4.72;;
40555;SDS011;26250;45.422;11.100;2022-12-18T01:35:16;4.70;;;4.30;;
40555;SDS011;26250;45.422;11.100;2022-12-18T01:37:43;10.45;;;4.80;;
40555;SDS011;26250;45.422;11.100;2022-12-18T01:40:10;5.07;;;4.65;;
40555;SDS011;26250;45.422;11.100;2022-12-18T01:42:38;5.15;;;4.75;;
40555;SDS011;26250;45.422;11.100;2022-12-18T01:47:50;7.25;;;5.40;;
40555;SDS011;26250;45.422;11.100;2022-12-18T01:55:38;7.80;;;7.00;;
40555;SDS011;26250;45.422;11.100;2022-12-18T01:58:12;7.72;;;6.97;;
40555;SDS011;26250;45.422;11.100;2022-12-18T02:00:40;12.18;;;7.80;;
40555;SDS011;26250;45.422;11.100;2022-12-18T02:03:07;7.45;;;6.80;;
40555;SDS011;26250;45.422;11.100;2022-12-18T02:05:44;7.88;;;7.13;;
40555;SDS011;26250;45.422;11.100;2022-12-18T02:22:26;8.57;;;7.03;;
40555;SDS011;26250;45.422;11.100;2022-12-18T02:27:54;9.32;;;7.30;;
40555;SDS011;26250;45.422;11.100;2022-12-18T02:30:29;8.52;;;5.85;;
40555;SDS011;26250;45.422;11.100;2022-12-18T02:33:00;8.57;;;7.70;;
40555;SDS011;26250;45.422;11.100;2022-12-18T02:35:31;8.55;;;7.03;;
40555;SDS011;26250;45.422;11.100;2022-12-18T02:38:00;7.35;;;6.65;;
40555;SDS011;26250;45.422;11.100;2022-12-18T02:40:32;6.47;;;5.97;;
40555;SDS011;26250;45.422;11.100;2022-12-18T02:43:06;7.93;;;7.20;;
40555;SDS011;26250;45.422;11.100;2022-12-18T02:45:48;8.18;;;7.38;;
40555;SDS011;26250;45.422;11.100;2022-12-18T02:48:26;13.15;;;7.18;;
40555;SDS011;26250;45.422;11.100;2022-12-18T02:50:59;12.88;;;7.53;;
40555;SDS011;26250;45.422;11.100;2022-12-18T02:53:39;11.25;;;7.50;;
40555;SDS011;26250;45.422;11.100;2022-12-18T02:56:21;9.00;;;8.00;;
40555;SDS011;26250;45.422;11.100;2022-12-18T03:01:43;15.63;;;7.50;;
40555;SDS011;26250;45.422;11.100;2022-12-18T03:04:29;11.30;;;7.43;;
40555;SDS011;26250;45.422;11.100;2022-12-18T03:07:09;21.20;;;8.75;;
40555;SDS011;26250;45.422;11.100;2022-12-18T03:09:43;11.43;;;8.32;;
40555;SDS011;26250;45.422;11.100;2022-12-18T03:12:18;11.27;;;8.23;;
40555;SDS011;26250;45.422;11.100;2022-12-18T03:14:55;16.27;;;8.13;;
40555;SDS011;26250;45.422;11.100;2022-12-18T03:17:26;14.20;;;7.90;;
40555;SDS011;26250;45.422;11.100;2022-12-18T03:19:56;11.95;;;8.02;;
40555;SDS011;26250;45.422;11.100;2022-12-18T03:22:30;16.15;;;8.45;;
40555;SDS011;26250;45.422;11.100;2022-12-18T03:25:00;11.77;;;9.52;;
40555;SDS011;26250;45.422;11.100;2022-12-18T03:27:30;9.60;;;8.52;;
40555;SDS011;26250;45.422;11.100;2022-12-18T03:30:04;10.18;;;8.43;;
40555;SDS011;26250;45.422;11.100;2022-12-18T03:35:33;17.98;;;9.82;;
40555;SDS011;26250;45.422;11.100;2022-12-18T03:38:04;11.88;;;8.88;;
40555;SDS011;26250;45.422;11.100;2022-12-18T03:40:35;15.57;;;8.85;;
40555;SDS011;26250;45.422;11.100;2022-12-18T03:43:18;9.25;;;8.38;;
40555;SDS011;26250;45.422;11.100;2022-12-18T03:46:06;11.43;;;9.18;;
40555;SDS011;26250;45.422;11.100;2022-12-18T03:48:43;15.05;;;9.82;;
40555;SDS011;26250;45.422;11.100;2022-12-18T03:51:30;12.95;;;9.07;;
40555;SDS011;26250;45.422;11.100;2022-12-18T03:54:07;11.32;;;8.95;;
40555;SDS011;26250;45.422;11.100;2022-12-18T03:56:42;12.13;;;10.88;;
40555;SDS011;26250;45.422;11.100;2022-12-18T03:59:13;16.55;;;11.13;;
40555;SDS011;26250;45.422;11.100;2022-12-18T04:01:43;11.48;;;9.77;;
40555;SDS011;26250;45.422;11.100;2022-12-18T04:04:14;12.57;;;9.32;;
40555;SDS011;26250;45.422;11.100;2022-12-18T04:06:43;11.20;;;8.77;;
40555;SDS011;26250;45.422;11.100;2022-12-18T04:09:13;11.95;;;8.38;;
40555;SDS011;26250;45.422;11.100;2022-12-18T04:11:45;11.63;;;8.02;;
40555;SDS011;26250;45.422;11.100;2022-12-18T04:14:14;7.97;;;7.05;;
40555;SDS011;26250;45.422;11.100;2022-12-18T04:16:45;9.50;;;7.20;;
40555;SDS011;26250;45.422;11.100;2022-12-18T04:19:14;8.52;;;6.22;;
40555;SDS011;26250;45.422;11.100;2022-12-18T04:21:43;18.30;;;8.05;;
40555;SDS011;26250;45.422;11.100;2022-12-18T04:24:12;11.52;;;7.65;;
40555;SDS011;26250;45.422;11.100;2022-12-18T04:26:47;9.88;;;8.27;;
40555;SDS011;26250;45.422;11.100;2022-12-18T04:29:22;8.35;;;6.65;;
40555;SDS011;26250;45.422;11.100;2022-12-18T04:31:49;6.93;;;5.90;;
40555;SDS011;26250;45.422;11.100;2022-12-18T04:34:16;9.18;;;6.63;;
40555;SDS011;26250;45.422;11.100;2022-12-18T04:36:48;9.75;;;7.38;;
40555;SDS011;26250;45.422;11.100;2022-12-18T04:39:17;9.68;;;8.25;;
40555;SDS011;26250;45.422;11.100;2022-12-18T04:41:45;12.88;;;7.45;;
40555;SDS011;26250;45.422;11.100;2022-12-18T04:44:12;7.63;;;6.97;;
40555;SDS011;26250;45.422;11.100;2022-12-18T04:46:39;7.70;;;6.70;;
40555;SDS011;26250;45.422;11.100;2022-12-18T04:49:06;6.95;;;6.25;;
40555;SDS011;26250;45.422;11.100;2022-12-18T04:51:33;6.80;;;6.22;;
40555;SDS011;26250;45.422;11.100;2022-12-18T04:54:00;14.13;;;7.35;;
40555;SDS011;26250;45.422;11.100;2022-12-18T04:56:27;7.50;;;6.90;;
40555;SDS011;26250;45.422;11.100;2022-12-18T04:58:54;13.75;;;7.47;;
40555;SDS011;26250;45.422;11.100;2022-12-18T05:01:21;8.30;;;6.68;;
40555;SDS011;26250;45.422;11.100;2022-12-18T05:03:48;13.77;;;7.03;;
40555;SDS011;26250;45.422;11.100;2022-12-18T05:06:15;6.63;;;5.60;;
40555;SDS011;26250;45.422;11.100;2022-12-18T05:08:42;6.43;;;5.78;;
40555;SDS011;26250;45.422;11.100;2022-12-18T05:11:09;8.90;;;6.57;;
40555;SDS011;26250;45.422;11.100;2022-12-18T05:13:38;6.60;;;6.00;;
40555;SDS011;26250;45.422;11.100;2022-12-18T05:16:06;8.75;;;6.45;;
40555;SDS011;26250;45.422;11.100;2022-12-18T05:18:33;7.32;;;6.63;;
40555;SDS011;26250;45.422;11.100;2022-12-18T05:21:00;11.30;;;7.22;;
40555;SDS011;26250;45.422;11.100;2022-12-18T05:23:27;10.57;;;7.78;;
40555;SDS011;26250;45.422;11.100;2022-12-18T05:25:58;7.90;;;7.22;;
40555;SDS011;26250;45.422;11.100;2022-12-18T05:28:28;7.57;;;6.88;;
40555;SDS011;26250;45.422;11.100;2022-12-18T05:30:56;7.82;;;7.10;;
40555;SDS011;26250;45.422;11.100;2022-12-18T05:33:25;8.88;;;7.75;;
40555;SDS011;26250;45.422;11.100;2022-12-18T05:35:54;12.90;;;8.75;;
40555;SDS011;26250;45.422;11.100;2022-12-18T05:38:23;11.15;;;8.23;;
40555;SDS011;26250;45.422;11.100;2022-12-18T05:40:51;8.38;;;7.50;;
40555;SDS011;26250;45.422;11.100;2022-12-18T05:43:22;8.38;;;7.55;;
40555;SDS011;26250;45.422;11.100;2022-12-18T05:45:49;10.45;;;9.25;;
40555;SDS011;26250;45.422;11.100;2022-12-18T05:48:17;8.93;;;7.47;;
40555;SDS011;26250;45.422;11.100;2022-12-18T05:50:45;19.90;;;8.73;;
40555;SDS011;26250;45.422;11.100;2022-12-18T05:53:13;12.85;;;7.65;;
40555;SDS011;26250;45.422;11.100;2022-12-18T05:55:42;11.25;;;7.55;;
40555;SDS011;26250;45.422;11.100;2022-12-18T05:58:10;8.20;;;7.50;;
40555;SDS011;26250;45.422;11.100;2022-12-18T06:00:40;11.55;;;7.85;;
40555;SDS011;26250;45.422;11.100;2022-12-18T06:03:09;8.30;;;7.55;;
40555;SDS011;26250;45.422;11.100;2022-12-18T06:05:38;7.20;;;6.53;;
40555;SDS011;26250;45.422;11.100;2022-12-18T06:08:07;16.98;;;7.15;;
40555;SDS011;26250;45.422;11.100;2022-12-18T06:10:34;12.48;;;7.03;;
40555;SDS011;26250;45.422;11.100;2022-12-18T06:13:01;9.07;;;7.97;;
40555;SDS011;26250;45.422;11.100;2022-12-18T06:15:29;11.05;;;7.85;;
40555;SDS011;26250;45.422;11.100;2022-12-18T06:17:56;12.85;;;8.60;;
40555;SDS011;26250;45.422;11.100;2022-12-18T06:20:23;10.70;;;7.85;;
40555;SDS011;26250;45.422;11.100;2022-12-18T20:21:55;21.88;;;17.60;;
40555;SDS011;26250;45.422;11.100;2022-12-18T20:24:22;30.05;;;17.33;;
40555;SDS011;26250;45.422;11.100;2022-12-18T20:26:49;20.90;;;16.95;;
40555;SDS011;26250;45.422;11.100;2022-12-18T20:29:16;28.98;;;16.95;;
40555;SDS011;26250;45.422;11.100;2022-12-18T20:31:43;22.33;;;18.83;;
40555;SDS011;26250;45.422;11.100;2022-12-18T20:34:10;20.92;;;17.50;;
40555;SDS011;26250;45.422;11.100;2022-12-18T20:36:38;27.25;;;17.10;;
40555;SDS011;26250;45.422;11.100;2022-12-18T20:39:06;17.05;;;15.40;;
40555;SDS011;26250;45.422;11.100;2022-12-18T20:41:35;19.95;;;17.00;;
40555;SDS011;26250;45.422;11.100;2022-12-18T20:44:04;25.20;;;18.98;;
40555;SDS011;26250;45.422;11.100;2022-12-18T20:46:47;17.70;;;16.00;;
40555;SDS011;26250;45.422;11.100;2022-12-18T20:49:15;26.05;;;17.98;;
40555;SDS011;26250;45.422;11.100;2022-12-18T20:51:42;27.38;;;17.35;;
40555;SDS011;26250;45.422;11.100;2022-12-18T20:54:09;18.20;;;16.40;;
40555;SDS011;26250;45.422;11.100;2022-12-18T20:56:37;19.40;;;15.23;;
40555;SDS011;26250;45.422;11.100;2022-12-18T20:59:04;18.77;;;15.57;;
40555;SDS011;26250;45.422;11.100;2022-12-18T21:01:31;17.92;;;16.05;;
40555;SDS011;26250;45.422;11.100;2022-12-18T21:03:58;18.48;;;16.13;;
40555;SDS011;26250;45.422;11.100;2022-12-18T21:06:26;20.35;;;17.70;;
40555;SDS011;26250;45.422;11.100;2022-12-18T21:08:52;25.30;;;19.00;;
40555;SDS011;26250;45.422;11.100;2022-12-18T21:14:07;32.75;;;19.38;;
40555;SDS011;26250;45.422;11.100;2022-12-18T21:16:37;20.80;;;17.45;;
40555;SDS011;26250;45.422;11.100;2022-12-18T21:19:05;18.13;;;16.50;;
40555;SDS011;26250;45.422;11.100;2022-12-18T21:21:32;20.63;;;18.63;;
40555;SDS011;26250;45.422;11.100;2022-12-18T21:24:04;25.23;;;22.80;;
40555;SDS011;26250;45.422;11.100;2022-12-18T21:26:32;27.25;;;24.55;;
40555;SDS011;26250;45.422;11.100;2022-12-18T21:29:00;30.45;;;27.15;;
40555;SDS011;26250;45.422;11.100;2022-12-18T21:31:32;24.13;;;21.63;;
40555;SDS011;26250;45.422;11.100;2022-12-18T21:34:01;25.30;;;21.80;;
40555;SDS011;26250;45.422;11.100;2022-12-18T21:36:29;25.67;;;23.02;;
40555;SDS011;26250;45.422;11.100;2022-12-18T21:38:57;18.85;;;16.98;;
40555;SDS011;26250;45.422;11.100;2022-12-18T21:41:26;20.95;;;18.90;;
40555;SDS011;26250;45.422;11.100;2022-12-18T21:44:13;22.38;;;19.45;;
40555;SDS011;26250;45.422;11.100;2022-12-18T21:46:45;36.58;;;19.30;;
40555;SDS011;26250;45.422;11.100;2022-12-18T21:49:21;22.08;;;18.35;;
40555;SDS011;26250;45.422;11.100;2022-12-18T21:51:49;20.60;;;18.13;;
40555;SDS011;26250;45.422;11.100;2022-12-18T21:54:20;23.30;;;20.17;;
40555;SDS011;26250;45.422;11.100;2022-12-18T21:56:54;27.80;;;20.13;;
